Time;durP1;ratioP1;P1;durP2;ratioP2;P2;SDS_P1;SDS_P2;PMS_P1;PMS_P2;Temp;Humidity;BMP_temperature;BMP_pressure;BME280_temperature;BME280_humidity;BME280_pressure;Samples;Min_cycle;Max_cycle;Signal;HPM_P1;HPM_P2
2023/09/14 00:00:46;;;;;;;3.50;1.10;;;13.50;99.90;;;;;;5005416;28;20061;-34
2023/09/14 00:03:12;;;;;;;3.40;0.80;;;13.50;99.90;;;;;;5008253;28;20049;-34
2023/09/14 00:05:46;;;;;;;5.22;1.15;;;13.40;99.90;;;;;;5005819;28;20054;-34
2023/09/14 00:08:12;;;;;;;3.25;0.85;;;13.40;99.90;;;;;;5006702;28;20510;-35
2023/09/14 00:10:39;;;;;;;3.30;0.82;;;13.40;99.90;;;;;;4992508;28;20049;-35
2023/09/14 00:13:05;;;;;;;3.63;1.30;;;13.30;99.90;;;;;;5003649;28;20061;-34
2023/09/14 00:15:32;;;;;;;2.40;0.90;;;13.30;99.90;;;;;;5002318;28;20061;-34
2023/09/14 00:17:57;;;;;;;3.35;1.10;;;13.30;99.90;;;;;;5005873;28;20518;-34
2023/09/14 00:20:30;;;;;;;3.33;0.90;;;13.30;99.90;;;;;;5007074;28;20057;-35
2023/09/14 00:22:56;;;;;;;;;;;13.20;99.90;;;;;;5001840;28;20132;-35
2023/09/14 00:25:22;;;;;;;3.10;0.90;;;13.20;99.90;;;;;;5005558;28;19924;-34
2023/09/14 00:27:48;;;;;;;4.38;1.05;;;13.20;99.90;;;;;;5005167;28;20056;-34
2023/09/14 00:30:14;;;;;;;4.18;1.10;;;13.20;99.90;;;;;;5005968;28;20050;-35
2023/09/14 00:32:40;;;;;;;2.78;1.20;;;13.10;99.90;;;;;;5005746;28;20048;-34
2023/09/14 00:35:10;;;;;;;3.92;1.10;;;13.10;99.90;;;;;;5006791;28;20042;-34
2023/09/14 00:37:36;;;;;;;3.13;1.00;;;13.10;99.90;;;;;;5002667;28;20392;-34
2023/09/14 00:40:06;;;;;;;6.00;1.25;;;13.10;99.90;;;;;;5005703;28;20120;-35
2023/09/14 00:42:51;;;;;;;4.22;1.02;;;13.10;99.90;;;;;;5005048;28;20057;-35
2023/09/14 00:45:21;;;;;;;4.13;1.00;;;13.10;99.90;;;;;;5004451;28;20053;-34
2023/09/14 00:47:50;;;;;;;5.03;1.10;;;13.00;99.90;;;;;;5005281;28;20054;-34
2023/09/14 00:50:18;;;;;;;3.53;1.10;;;13.00;99.90;;;;;;5007770;28;20073;-34
2023/09/14 00:52:51;;;;;;;4.85;1.20;;;13.10;99.90;;;;;;5004793;28;20057;-34
2023/09/14 00:55:17;;;;;;;5.78;1.30;;;13.00;99.90;;;;;;5004178;28;20057;-34
2023/09/14 00:57:44;;;;;;;2.78;1.00;;;13.00;99.90;;;;;;4987000;28;20081;-34
2023/09/14 01:00:11;;;;;;;5.43;0.93;;;12.90;99.90;;;;;;5004052;28;20053;-34
2023/09/14 01:02:39;;;;;;;2.97;0.80;;;12.90;99.90;;;;;;5003584;28;20053;-34
2023/09/14 01:05:06;;;;;;;4.63;1.30;;;12.90;99.90;;;;;;5004508;28;20053;-35
2023/09/14 01:07:32;;;;;;;1.55;0.70;;;12.90;99.90;;;;;;5010790;28;20057;-34
2023/09/14 01:09:58;;;;;;;3.78;1.15;;;12.80;99.90;;;;;;5006139;28;20046;-34
2023/09/14 01:12:24;;;;;;;3.38;1.10;;;12.80;99.90;;;;;;5004937;28;20053;-34
2023/09/14 01:14:57;;;;;;;2.47;0.80;;;12.80;99.90;;;;;;5003825;28;20045;-34
2023/09/14 01:17:39;;;;;;;3.05;0.82;;;12.70;99.90;;;;;;5002762;28;20054;-34
2023/09/14 01:20:11;;;;;;;2.60;0.95;;;12.70;99.90;;;;;;5005105;28;20085;-34
2023/09/14 01:22:50;;;;;;;5.22;2.10;;;12.70;99.90;;;;;;5004108;28;20140;-34
2023/09/14 01:25:34;;;;;;;2.30;1.05;;;12.70;99.90;;;;;;5002292;28;20136;-34
2023/09/14 01:28:11;;;;;;;5.70;1.40;;;12.70;99.90;;;;;;5003263;28;20076;-34
2023/09/14 01:30:39;;;;;;;5.03;1.40;;;12.60;99.90;;;;;;5004101;28;20041;-34
2023/09/14 01:33:14;;;;;;;4.05;1.27;;;12.60;99.90;;;;;;5005243;28;20137;-34
2023/09/14 01:36:00;;;;;;;2.33;1.08;;;12.60;99.90;;;;;;5005018;28;20053;-34
2023/09/14 01:38:29;;;;;;;3.58;1.38;;;12.60;99.90;;;;;;5003238;28;20180;-34
2023/09/14 01:40:55;;;;;;;4.00;1.20;;;12.60;99.90;;;;;;5011560;28;20065;-34
2023/09/14 01:43:20;;;;;;;3.90;1.40;;;12.60;99.90;;;;;;5008481;28;20050;-34
2023/09/14 01:45:47;;;;;;;3.72;1.30;;;12.50;99.90;;;;;;5009475;28;20399;-34
2023/09/14 01:48:18;;;;;;;3.97;1.25;;;12.50;99.90;;;;;;5011136;28;20056;-34
2023/09/14 01:50:44;;;;;;;2.00;1.05;;;12.50;99.90;;;;;;4992632;28;20057;-34
2023/09/14 01:53:10;;;;;;;3.65;1.23;;;12.50;99.90;;;;;;4989902;28;20061;-34
2023/09/14 01:55:37;;;;;;;3.97;1.05;;;12.40;99.90;;;;;;5011968;28;20407;-34
2023/09/14 01:58:02;;;;;;;4.03;1.77;;;12.40;99.90;;;;;;4989696;28;20067;-34
2023/09/14 02:00:28;;;;;;;6.15;1.30;;;12.40;99.90;;;;;;5008714;28;20062;-35
2023/09/14 02:02:54;;;;;;;5.03;1.40;;;12.30;99.90;;;;;;5006893;28;20136;-34
2023/09/14 02:05:20;;;;;;;2.90;1.15;;;12.30;99.90;;;;;;5008160;28;20415;-34
2023/09/14 02:07:46;;;;;;;3.83;1.42;;;12.30;99.90;;;;;;4988735;28;20133;-34
2023/09/14 02:10:13;;;;;;;2.33;1.25;;;12.30;99.90;;;;;;4988090;28;20108;-34
2023/09/14 02:12:39;;;;;;;4.80;1.48;;;12.30;99.90;;;;;;5004010;28;20060;-34
2023/09/14 02:15:05;;;;;;;4.25;1.33;;;12.20;99.90;;;;;;5008134;28;20050;-34
2023/09/14 02:17:31;;;;;;;5.35;1.45;;;12.20;99.90;;;;;;4971774;28;20050;-34
2023/09/14 02:19:58;;;;;;;3.25;1.45;;;12.20;99.90;;;;;;5007025;28;20056;-34
2023/09/14 02:22:24;;;;;;;2.22;1.20;;;12.20;99.90;;;;;;5004759;28;20511;-34
2023/09/14 02:24:49;;;;;;;5.05;1.40;;;12.20;99.90;;;;;;5006875;28;20072;-34
2023/09/14 02:27:16;;;;;;;4.40;1.30;;;12.10;99.90;;;;;;5006724;28;20053;-34
2023/09/14 02:29:41;;;;;;;8.30;1.65;;;12.10;99.90;;;;;;5005254;28;20119;-35
2023/09/14 02:32:08;;;;;;;2.67;1.40;;;12.10;99.90;;;;;;5003563;28;20053;-34
2023/09/14 02:34:34;;;;;;;3.15;0.98;;;12.00;99.90;;;;;;5008980;28;20429;-34
2023/09/14 02:36:59;;;;;;;2.85;0.90;;;12.00;99.90;;;;;;5008891;28;20042;-34
2023/09/14 02:39:25;;;;;;;2.70;1.00;;;12.00;99.90;;;;;;5006958;28;20148;-34
2023/09/14 02:41:51;;;;;;;2.33;1.10;;;12.00;99.90;;;;;;5008518;28;20129;-34
2023/09/14 02:44:16;;;;;;;3.70;1.30;;;12.00;99.90;;;;;;5005834;28;20107;-34
2023/09/14 02:46:42;;;;;;;3.97;1.63;;;12.00;99.90;;;;;;5008013;28;20050;-34
2023/09/14 02:49:08;;;;;;;2.78;1.00;;;11.90;99.90;;;;;;5004857;28;20054;-34
2023/09/14 02:51:33;;;;;;;2.22;0.98;;;11.90;99.90;;;;;;5005524;28;20077;-34
2023/09/14 02:53:59;;;;;;;1.70;1.00;;;11.90;99.90;;;;;;4988857;28;20053;-34
2023/09/14 02:56:25;;;;;;;4.78;1.35;;;11.90;99.90;;;;;;5007807;28;20060;-34
2023/09/14 02:58:51;;;;;;;2.15;0.93;;;11.80;99.90;;;;;;5008622;28;20053;-34
2023/09/14 03:01:17;;;;;;;3.33;1.27;;;11.80;99.90;;;;;;5008211;28;20074;-35
2023/09/14 03:03:43;;;;;;;3.60;1.13;;;11.80;99.90;;;;;;5005545;28;20069;-34
2023/09/14 03:06:09;;;;;;;2.13;1.02;;;11.80;99.90;;;;;;5008562;28;20048;-34
2023/09/14 03:08:34;;;;;;;2.70;1.10;;;11.80;99.90;;;;;;5007549;28;20065;-34
2023/09/14 03:11:00;;;;;;;2.30;1.10;;;11.80;99.90;;;;;;5008344;28;20050;-34
2023/09/14 03:13:26;;;;;;;2.38;1.10;;;11.80;99.90;;;;;;5006727;28;20185;-34
2023/09/14 03:15:57;;;;;;;6.03;0.98;;;11.70;99.90;;;;;;5006777;28;20057;-34
2023/09/14 03:18:23;;;;;;;3.28;1.00;;;11.70;99.90;;;;;;5005217;28;20057;-34
2023/09/14 03:20:52;;;;;;;2.80;0.93;;;11.70;99.90;;;;;;5007044;28;20061;-34
2023/09/14 03:23:18;;;;;;;3.83;1.30;;;11.70;99.90;;;;;;5005013;28;20054;-34
2023/09/14 03:25:44;;;;;;;3.53;1.33;;;11.70;99.90;;;;;;5007673;28;20502;-34
2023/09/14 03:28:11;;;;;;;3.38;1.45;;;11.70;99.90;;;;;;5006605;28;20096;-34
2023/09/14 03:30:37;;;;;;;2.10;1.00;;;11.60;99.90;;;;;;5005200;28;20052;-34
2023/09/14 03:33:03;;;;;;;4.40;1.40;;;11.70;99.90;;;;;;5005807;28;20049;-34
2023/09/14 03:35:28;;;;;;;3.80;1.58;;;11.70;99.90;;;;;;5006902;28;20050;-34
2023/09/14 03:37:54;;;;;;;4.00;1.45;;;11.70;99.90;;;;;;5003958;28;20062;-34
2023/09/14 03:40:20;;;;;;;2.97;1.60;;;11.60;99.90;;;;;;4988627;28;20053;-34
2023/09/14 03:42:46;;;;;;;4.20;1.70;;;11.60;99.90;;;;;;5004545;28;20061;-34
2023/09/14 03:45:12;;;;;;;2.55;1.30;;;11.60;99.90;;;;;;5007876;28;20053;-34
2023/09/14 03:47:38;;;;;;;3.10;1.40;;;11.60;99.90;;;;;;4990664;28;20061;-34
2023/09/14 03:50:05;;;;;;;4.13;1.50;;;11.60;99.90;;;;;;5007046;28;20484;-34
2023/09/14 03:52:31;;;;;;;3.83;1.30;;;11.60;99.90;;;;;;5005932;28;20491;-34
2023/09/14 03:54:56;;;;;;;3.72;1.17;;;11.60;99.90;;;;;;5008115;28;20060;-34
2023/09/14 03:57:24;;;;;;;2.97;1.35;;;11.60;99.90;;;;;;5006797;28;20050;-34
2023/09/14 03:59:51;;;;;;;6.15;1.50;;;11.60;99.90;;;;;;5003323;28;20438;-34
2023/09/14 04:02:17;;;;;;;3.97;1.40;;;11.50;99.90;;;;;;5003547;28;20065;-34
2023/09/14 04:04:43;;;;;;;4.18;1.42;;;11.60;99.90;;;;;;5006817;28;21235;-34
2023/09/14 04:07:10;;;;;;;3.15;1.20;;;11.50;99.90;;;;;;5006664;28;20050;-34
2023/09/14 04:09:36;;;;;;;1.88;1.05;;;11.60;99.90;;;;;;5005576;28;21529;-34
2023/09/14 04:12:03;;;;;;;3.30;1.23;;;11.50;99.90;;;;;;5003150;28;20053;-34
2023/09/14 04:14:29;;;;;;;3.08;1.17;;;11.50;99.90;;;;;;5004146;28;20077;-34
2023/09/14 04:16:59;;;;;;;2.70;1.10;;;11.50;99.90;;;;;;4988537;28;20198;-34
2023/09/14 04:19:25;;;;;;;4.07;1.50;;;11.50;99.90;;;;;;5003574;28;20061;-34
2023/09/14 04:21:51;;;;;;;4.15;0.93;;;11.50;99.90;;;;;;5005007;28;20041;-34
2023/09/14 04:24:17;;;;;;;2.42;0.90;;;11.40;99.90;;;;;;5008016;28;20080;-34
2023/09/14 04:26:42;;;;;;;2.03;0.80;;;11.40;99.90;;;;;;5003798;28;20046;-34
2023/09/14 04:29:08;;;;;;;3.15;0.80;;;11.40;99.90;;;;;;5004946;28;20064;-34
2023/09/14 04:31:34;;;;;;;2.85;1.00;;;11.40;99.90;;;;;;5005170;28;20046;-34
2023/09/14 04:34:00;;;;;;;3.10;0.80;;;11.40;99.90;;;;;;5006118;28;20080;-34
2023/09/14 04:36:26;;;;;;;4.72;1.00;;;11.40;99.90;;;;;;5004585;28;20550;-34
2023/09/14 04:38:51;;;;;;;1.60;0.80;;;11.30;99.90;;;;;;5007030;28;20140;-34
2023/09/14 04:41:17;;;;;;;3.00;0.95;;;11.30;99.90;;;;;;5004060;28;20523;-34
2023/09/14 04:43:43;;;;;;;2.30;0.85;;;11.30;99.90;;;;;;4987369;28;20456;-34
2023/09/14 04:46:08;;;;;;;2.15;0.82;;;11.30;99.90;;;;;;5005079;28;20042;-34
2023/09/14 04:48:37;;;;;;;3.15;0.98;;;11.30;99.90;;;;;;4987673;28;20058;-34
2023/09/14 04:51:03;;;;;;;2.53;1.23;;;11.30;99.90;;;;;;5005944;28;20053;-34
2023/09/14 04:53:30;;;;;;;2.40;1.05;;;11.30;99.90;;;;;;4987038;28;21480;-34
2023/09/14 04:55:55;;;;;;;2.28;0.85;;;11.30;99.90;;;;;;5005740;28;20053;-34
2023/09/14 04:58:21;;;;;;;3.63;0.90;;;11.20;99.90;;;;;;5007779;28;20045;-34
2023/09/14 05:00:48;;;;;;;2.38;1.05;;;11.30;99.90;;;;;;4988976;28;20057;-34
2023/09/14 05:03:14;;;;;;;3.15;1.20;;;11.20;99.90;;;;;;4999598;28;20976;-34
2023/09/14 05:05:40;;;;;;;2.33;1.05;;;11.20;99.90;;;;;;5005862;28;20054;-34
2023/09/14 05:08:06;;;;;;;2.95;1.08;;;11.30;99.90;;;;;;5003551;28;20527;-34
2023/09/14 05:10:32;;;;;;;4.00;1.20;;;11.20;99.90;;;;;;5005141;28;20058;-34
2023/09/14 05:12:58;;;;;;;2.50;0.77;;;11.20;99.90;;;;;;4999828;28;20526;-34
2023/09/14 05:15:23;;;;;;;3.60;1.20;;;11.20;99.90;;;;;;5007167;28;20176;-34
2023/09/14 05:17:50;;;;;;;2.97;1.23;;;11.20;99.90;;;;;;5007851;28;20910;-34
2023/09/14 05:20:15;;;;;;;3.90;1.20;;;11.20;99.90;;;;;;5008326;28;20064;-34
2023/09/14 05:22:42;;;;;;;4.75;1.20;;;11.20;99.90;;;;;;5009026;28;20459;-34
2023/09/14 05:25:09;;;;;;;2.17;1.00;;;11.20;99.90;;;;;;4990856;28;20136;-34
2023/09/14 05:27:38;;;;;;;2.20;0.88;;;11.20;99.90;;;;;;5008838;28;20522;-34
2023/09/14 05:30:09;;;;;;;2.13;1.08;;;11.20;99.90;;;;;;5002073;28;20049;-34
2023/09/14 05:32:35;;;;;;;2.15;1.00;;;11.30;99.90;;;;;;5006682;28;20412;-34
2023/09/14 05:35:02;;;;;;;6.78;1.40;;;11.30;99.90;;;;;;5008562;28;20128;-34
2023/09/14 05:37:28;;;;;;;5.68;1.27;;;11.30;99.90;;;;;;5006733;28;20038;-34
2023/09/14 05:39:54;;;;;;;4.28;1.45;;;11.30;99.90;;;;;;5007138;28;20053;-34
2023/09/14 05:42:21;;;;;;;4.15;1.20;;;11.30;99.90;;;;;;5003280;28;20092;-34
2023/09/14 05:44:48;;;;;;;4.20;1.00;;;11.30;99.90;;;;;;5005494;28;20064;-34
2023/09/14 05:47:14;;;;;;;4.35;1.17;;;11.30;99.90;;;;;;5008919;28;20475;-34
2023/09/14 05:49:40;;;;;;;3.67;0.98;;;11.30;99.90;;;;;;4982674;28;20053;-34
2023/09/14 05:52:06;;;;;;;4.00;1.27;;;11.40;99.90;;;;;;4998433;28;20050;-34
2023/09/14 05:54:32;;;;;;;6.03;1.42;;;11.40;99.90;;;;;;5005914;28;20060;-34
2023/09/14 05:56:57;;;;;;;3.22;1.30;;;11.40;99.90;;;;;;5007570;28;20046;-34
2023/09/14 05:59:23;;;;;;;2.40;1.30;;;11.40;99.90;;;;;;4991409;28;20407;-34
2023/09/14 06:01:50;;;;;;;4.43;1.10;;;11.50;99.90;;;;;;5006625;28;20046;-34
2023/09/14 06:04:17;;;;;;;3.05;1.33;;;11.60;99.90;;;;;;5010226;28;20050;-34
2023/09/14 06:06:42;;;;;;;7.43;1.25;;;11.60;99.90;;;;;;5008622;28;20137;-34
2023/09/14 06:09:08;;;;;;;6.53;1.52;;;11.70;99.90;;;;;;5009656;28;20141;-34
2023/09/14 06:11:34;;;;;;;4.53;1.40;;;11.70;99.90;;;;;;5010026;28;20046;-34
2023/09/14 06:13:59;;;;;;;3.05;1.27;;;11.80;99.90;;;;;;5009298;28;20045;-34
2023/09/14 06:16:25;;;;;;;3.53;1.50;;;11.80;99.90;;;;;;5009286;28;20500;-34
2023/09/14 06:18:51;;;;;;;2.60;0.98;;;11.90;99.90;;;;;;5004172;28;20339;-34
2023/09/14 06:21:18;;;;;;;4.05;1.40;;;11.90;99.90;;;;;;5005523;28;20058;-34
2023/09/14 06:23:44;;;;;;;6.47;1.75;;;12.00;99.90;;;;;;5010774;28;20046;-34
2023/09/14 06:26:10;;;;;;;4.10;1.38;;;12.00;99.90;;;;;;5011586;28;20050;-34
2023/09/14 06:28:36;;;;;;;5.00;2.40;;;12.10;99.90;;;;;;5008711;28;20069;-34
2023/09/14 06:31:01;;;;;;;4.78;1.85;;;12.10;99.90;;;;;;5009479;28;20057;-34
2023/09/14 06:33:27;;;;;;;2.83;1.27;;;12.20;99.90;;;;;;5007548;28;20080;-34
2023/09/14 06:35:52;;;;;;;4.72;1.73;;;12.20;99.90;;;;;;5005603;28;20050;-34
2023/09/14 06:38:18;;;;;;;6.57;2.30;;;12.20;99.90;;;;;;5009807;28;20054;-35
2023/09/14 06:40:44;;;;;;;3.55;1.55;;;12.30;99.90;;;;;;5007783;28;20526;-35
2023/09/14 06:43:10;;;;;;;7.95;2.20;;;12.40;99.90;;;;;;5008865;28;20145;-35
2023/09/14 06:45:36;;;;;;;2.83;1.45;;;12.40;99.90;;;;;;5009580;28;20053;-34
2023/09/14 06:48:01;;;;;;;5.45;1.50;;;12.50;99.90;;;;;;5009686;28;20053;-34
2023/09/14 06:50:27;;;;;;;6.38;1.63;;;12.50;99.90;;;;;;5008466;28;20050;-35
2023/09/14 06:52:53;;;;;;;6.80;2.20;;;12.50;99.90;;;;;;5007994;28;20064;-35
2023/09/14 06:55:20;;;;;;;5.63;2.45;;;12.60;99.90;;;;;;4992515;28;20057;-35
2023/09/14 06:57:45;;;;;;;6.15;2.15;;;12.60;99.90;;;;;;5006836;28;20508;-35
2023/09/14 07:00:16;;;;;;;4.80;1.63;;;12.60;99.90;;;;;;5000336;28;20101;-34
2023/09/14 07:02:45;;;;;;;4.90;1.50;;;12.60;99.90;;;;;;5007238;28;20046;-35
2023/09/14 07:05:11;;;;;;;8.23;2.53;;;12.60;99.90;;;;;;5010324;28;20061;-35
2023/09/14 07:07:41;;;;;;;5.50;1.80;;;12.70;99.90;;;;;;5009368;28;20057;-34
2023/09/14 07:10:08;;;;;;;4.75;2.08;;;12.80;99.90;;;;;;5011600;28;20111;-35
2023/09/14 07:12:35;;;;;;;4.55;1.95;;;12.80;99.90;;;;;;5004493;28;20045;-34
2023/09/14 07:15:02;;;;;;;4.90;2.08;;;12.90;99.90;;;;;;5007216;28;20053;-34
2023/09/14 07:17:28;;;;;;;6.03;1.90;;;12.90;99.90;;;;;;4993171;28;20494;-35
2023/09/14 07:19:53;;;;;;;6.43;1.80;;;13.00;99.90;;;;;;5005345;28;20048;-35
2023/09/14 07:22:22;;;;;;;5.75;1.50;;;13.10;99.90;;;;;;5006311;28;20042;-35
2023/09/14 07:24:48;;;;;;;5.97;2.00;;;13.20;99.90;;;;;;5008529;28;20046;-35
2023/09/14 07:27:14;;;;;;;6.93;2.42;;;13.30;99.90;;;;;;5014288;28;20045;-35
2023/09/14 07:29:40;;;;;;;4.85;2.15;;;13.30;99.90;;;;;;5013373;28;20622;-35
2023/09/14 07:32:06;;;;;;;9.95;1.67;;;13.40;99.90;;;;;;4976708;28;20064;-34
2023/09/14 07:34:31;;;;;;;5.03;1.40;;;13.50;99.90;;;;;;5007888;28;20057;-35
2023/09/14 07:36:57;;;;;;;4.93;1.55;;;13.50;99.90;;;;;;5017811;28;20110;-34
2023/09/14 07:39:22;;;;;;;2.42;0.80;;;13.60;99.90;;;;;;5010052;28;20499;-35
2023/09/14 07:41:48;;;;;;;5.10;1.17;;;13.70;99.90;;;;;;5007651;28;20133;-35
2023/09/14 07:44:14;;;;;;;3.05;1.15;;;13.80;99.90;;;;;;5016437;28;20415;-35
2023/09/14 07:46:39;;;;;;;3.22;0.93;;;13.80;99.90;;;;;;5007052;28;20073;-35
2023/09/14 07:49:05;;;;;;;3.97;0.95;;;13.90;99.90;;;;;;5007575;28;20506;-35
2023/09/14 07:51:31;;;;;;;3.13;1.13;;;14.00;99.90;;;;;;5008988;28;20570;-34
2023/09/14 07:53:59;;;;;;;6.20;1.10;;;14.10;99.90;;;;;;4996131;28;20080;-35
2023/09/14 07:56:25;;;;;;;6.50;0.93;;;14.10;99.90;;;;;;5022094;28;20069;-35
2023/09/14 07:58:52;;;;;;;5.45;1.10;;;14.20;99.90;;;;;;5004382;28;20136;-35
2023/09/14 08:01:18;;;;;;;4.05;0.98;;;14.30;99.90;;;;;;5008510;28;20123;-35
2023/09/14 08:03:44;;;;;;;4.38;1.00;;;14.40;99.90;;;;;;5004789;28;20551;-35
2023/09/14 08:06:10;;;;;;;5.10;1.00;;;14.50;99.90;;;;;;5006543;28;20192;-35
2023/09/14 08:08:35;;;;;;;6.07;0.88;;;14.50;99.90;;;;;;5007144;28;20435;-35
2023/09/14 08:11:01;;;;;;;6.75;1.20;;;14.60;99.90;;;;;;5006593;28;20070;-35
2023/09/14 08:13:27;;;;;;;4.65;0.88;;;14.60;99.90;;;;;;5009082;28;20050;-35
2023/09/14 08:15:53;;;;;;;4.57;1.10;;;14.70;99.90;;;;;;5006239;28;20514;-35
2023/09/14 08:18:19;;;;;;;4.30;1.08;;;14.80;99.90;;;;;;4987374;28;20442;-35
2023/09/14 08:20:46;;;;;;;4.60;1.15;;;14.90;99.90;;;;;;5007135;28;20077;-35
2023/09/14 08:23:15;;;;;;;5.47;1.48;;;15.00;99.90;;;;;;5006931;28;20060;-35
2023/09/14 08:25:44;;;;;;;4.95;1.27;;;15.10;99.90;;;;;;5008647;28;20128;-35
2023/09/14 08:28:14;;;;;;;2.88;0.80;;;15.20;99.90;;;;;;5005350;28;20078;-35
2023/09/14 08:30:41;;;;;;;4.75;1.35;;;15.30;99.90;;;;;;5008884;28;20053;-35
2023/09/14 08:33:07;;;;;;;6.38;1.30;;;15.40;99.90;;;;;;5012509;28;20064;-35
2023/09/14 08:35:34;;;;;;;5.15;1.25;;;15.50;99.90;;;;;;5009480;28;20183;-35
2023/09/14 08:38:03;;;;;;;4.40;1.05;;;15.60;99.90;;;;;;5006757;28;20064;-35
2023/09/14 08:40:29;;;;;;;5.47;1.23;;;15.70;99.90;;;;;;5006313;28;20048;-35
2023/09/14 08:42:56;;;;;;;4.20;1.10;;;15.80;99.90;;;;;;4993461;28;20042;-35
2023/09/14 08:45:32;;;;;;;7.28;1.58;;;15.90;99.90;;;;;;5014648;28;20054;-35
2023/09/14 08:48:01;;;;;;;7.53;1.00;;;16.10;99.90;;;;;;5006176;28;20050;-35
2023/09/14 08:50:29;;;;;;;4.05;1.17;;;16.20;99.90;;;;;;5009820;28;20050;-35
2023/09/14 08:52:55;;;;;;;6.45;0.90;;;16.20;99.90;;;;;;5006640;28;20081;-34
2023/09/14 08:55:23;;;;;;;4.10;0.60;;;16.10;99.90;;;;;;5009305;28;20049;-34
2023/09/14 08:57:49;;;;;;;5.03;0.95;;;16.10;99.90;;;;;;5007246;28;20659;-35
2023/09/14 09:00:15;;;;;;;4.95;0.90;;;16.10;99.90;;;;;;4990300;28;20054;-35
2023/09/14 09:02:43;;;;;;;2.55;0.60;;;16.10;99.90;;;;;;5006536;28;20054;-35
2023/09/14 09:05:11;;;;;;;4.85;0.75;;;16.20;99.90;;;;;;5010698;28;20069;-35
2023/09/14 09:07:39;;;;;;;5.68;1.38;;;16.30;99.90;;;;;;5007587;28;20049;-35
2023/09/14 09:10:19;;;;;;;4.53;0.57;;;16.40;99.90;;;;;;5005664;28;20100;-35
2023/09/14 09:12:46;;;;;;;3.17;0.85;;;16.50;99.90;;;;;;5004126;28;20042;-35
2023/09/14 09:15:13;;;;;;;5.35;0.57;;;16.70;99.90;;;;;;5007430;28;20050;-35
2023/09/14 09:17:40;;;;;;;5.72;0.63;;;16.80;99.90;;;;;;5008653;28;20050;-36
2023/09/14 09:20:14;;;;;;;1.40;0.60;;;16.80;99.90;;;;;;4987304;28;20048;-35
2023/09/14 09:22:43;;;;;;;3.80;0.60;;;16.90;99.90;;;;;;5005306;28;20077;-35
2023/09/14 09:25:13;;;;;;;3.60;0.70;;;17.00;99.90;;;;;;5005707;28;20189;-36
2023/09/14 09:27:39;;;;;;;4.82;0.88;;;17.10;99.90;;;;;;4990226;28;20050;-35
2023/09/14 09:30:08;;;;;;;3.88;0.50;;;17.20;99.90;;;;;;5001098;28;20496;-35
2023/09/14 09:32:35;;;;;;;3.63;0.90;;;17.30;99.90;;;;;;5008214;28;20054;-36
2023/09/14 09:35:16;;;;;;;3.63;0.88;;;17.30;99.90;;;;;;5009291;28;20837;-36
2023/09/14 09:37:42;;;;;;;3.15;0.77;;;17.40;99.90;;;;;;5009021;28;20138;-35
2023/09/14 09:40:15;;;;;;;2.83;0.70;;;17.40;99.90;;;;;;5006209;28;20149;-35
2023/09/14 09:42:42;;;;;;;6.07;1.40;;;17.50;99.90;;;;;;4987000;28;20050;-35
2023/09/14 09:45:09;;;;;;;3.50;0.55;;;17.60;99.90;;;;;;4989764;28;20484;-35
2023/09/14 09:47:36;;;;;;;5.63;0.80;;;17.70;99.90;;;;;;5006571;28;20148;-35
2023/09/14 09:50:08;;;;;;;4.03;0.80;;;17.70;99.90;;;;;;5006048;28;20133;-35
2023/09/14 09:52:34;;;;;;;1.70;0.65;;;17.70;99.90;;;;;;5002849;28;20480;-35
2023/09/14 09:55:00;;;;;;;6.40;0.70;;;17.70;99.90;;;;;;5008541;28;20439;-36
2023/09/14 09:57:32;;;;;;;4.22;0.73;;;17.80;99.90;;;;;;5008038;28;20058;-35
2023/09/14 09:59:58;;;;;;;5.13;0.80;;;17.80;99.90;;;;;;5007820;28;20124;-35
2023/09/14 10:02:31;;;;;;;4.53;0.65;;;17.90;99.90;;;;;;4971561;28;20487;-36
2023/09/14 10:04:58;;;;;;;6.07;0.82;;;18.00;99.90;;;;;;5009263;28;20132;-35
2023/09/14 10:07:24;;;;;;;3.08;0.70;;;18.10;99.90;;;;;;5009550;28;20073;-36
2023/09/14 10:09:55;;;;;;;2.47;0.80;;;18.30;99.90;;;;;;5011418;28;20447;-35
2023/09/14 10:12:24;;;;;;;5.90;0.68;;;18.40;99.90;;;;;;5010511;28;20377;-35
2023/09/14 10:14:54;;;;;;;4.78;0.70;;;18.50;99.90;;;;;;5009197;28;20084;-35
2023/09/14 10:17:22;;;;;;;4.55;0.73;;;18.50;99.90;;;;;;5010244;28;20131;-35
2023/09/14 10:19:49;;;;;;;2.70;0.90;;;18.50;99.90;;;;;;5008321;28;20077;-35
2023/09/14 10:22:16;;;;;;;2.10;0.50;;;18.50;99.90;;;;;;5009594;28;20054;-35
2023/09/14 10:24:43;;;;;;;4.88;1.15;;;18.60;99.90;;;;;;5011578;28;20050;-35
2023/09/14 10:27:10;;;;;;;3.85;0.80;;;18.70;99.90;;;;;;5010122;28;20068;-36
2023/09/14 10:29:42;;;;;;;3.40;0.73;;;18.80;99.90;;;;;;5008561;28;20053;-36
2023/09/14 10:32:14;;;;;;;6.07;0.90;;;18.90;99.90;;;;;;5004136;28;20509;-35
2023/09/14 10:34:41;;;;;;;1.83;0.60;;;19.00;99.90;;;;;;5007695;28;20092;-35
2023/09/14 10:37:11;;;;;;;3.38;0.75;;;19.00;99.90;;;;;;5008208;28;20049;-35
2023/09/14 10:39:37;;;;;;;1.88;0.52;;;19.00;99.90;;;;;;5009191;28;20475;-35
2023/09/14 10:42:06;;;;;;;4.50;0.85;;;19.00;99.90;;;;;;5006548;28;20054;-36
2023/09/14 10:44:32;;;;;;;4.30;0.90;;;19.10;99.90;;;;;;5008299;28;20050;-36
2023/09/14 10:47:01;;;;;;;2.88;0.63;;;19.20;99.90;;;;;;5008438;28;20053;-35
2023/09/14 10:49:33;;;;;;;6.00;1.10;;;19.30;99.90;;;;;;5007167;28;20062;-36
2023/09/14 10:52:00;;;;;;;3.33;0.82;;;19.40;99.90;;;;;;5009999;28;20081;-35
2023/09/14 10:54:27;;;;;;;12.75;0.90;;;19.40;99.90;;;;;;5006681;28;20141;-35
2023/09/14 10:56:56;;;;;;;3.25;0.70;;;19.40;99.90;;;;;;5010069;28;20045;-35
2023/09/14 10:59:46;;;;;;;5.22;0.68;;;19.40;99.90;;;;;;5007346;28;20470;-35
2023/09/14 11:02:32;;;;;;;2.95;0.85;;;19.40;99.90;;;;;;4998693;28;20495;-35
2023/09/14 11:05:11;;;;;;;3.35;0.73;;;19.60;99.90;;;;;;5007263;28;20054;-34
2023/09/14 11:07:37;;;;;;;3.60;1.00;;;19.70;99.90;;;;;;5011296;28;20112;-35
2023/09/14 11:10:05;;;;;;;5.22;0.80;;;19.80;99.90;;;;;;5007045;28;20061;-35
2023/09/14 11:12:30;;;;;;;4.53;1.10;;;19.90;99.90;;;;;;5005632;28;20050;-35
2023/09/14 11:15:16;;;;;;;3.35;0.65;;;20.00;99.90;;;;;;5010327;28;20038;-36
2023/09/14 11:17:47;;;;;;;4.93;0.77;;;19.90;99.90;;;;;;4988244;28;20169;-35
2023/09/14 11:20:22;;;;;;;4.90;0.75;;;19.80;99.90;;;;;;5007534;28;20049;-35
2023/09/14 11:22:48;;;;;;;5.22;0.90;;;19.80;99.90;;;;;;5007647;28;20499;-35
2023/09/14 11:25:28;;;;;;;3.25;0.95;;;20.00;99.90;;;;;;5008557;28;20050;-35
2023/09/14 11:27:55;;;;;;;4.43;0.85;;;20.20;99.90;;;;;;5005471;28;20551;-35
2023/09/14 11:30:21;;;;;;;2.90;0.98;;;20.30;99.90;;;;;;5005297;28;20430;-35
2023/09/14 11:32:48;;;;;;;5.85;1.15;;;20.30;99.90;;;;;;5003796;28;20045;-35
2023/09/14 11:35:13;;;;;;;2.35;0.75;;;20.40;99.90;;;;;;5007422;28;20062;-35
2023/09/14 11:37:42;;;;;;;4.13;0.88;;;20.30;99.90;;;;;;5006382;28;20045;-35
2023/09/14 11:40:15;;;;;;;5.55;0.70;;;20.30;99.90;;;;;;5008459;28;20175;-35
2023/09/14 11:43:23;;;;;;;2.75;0.82;;;20.40;99.90;;;;;;5002401;28;20491;-35
2023/09/14 11:45:56;;;;;;;4.15;0.60;;;20.50;99.90;;;;;;5005192;28;20458;-35
2023/09/14 11:48:23;;;;;;;3.83;0.70;;;20.70;99.90;;;;;;5007284;28;20141;-34
2023/09/14 11:50:50;;;;;;;3.35;0.70;;;20.60;99.90;;;;;;5004827;28;20037;-34
2023/09/14 11:53:18;;;;;;;2.50;0.88;;;20.60;99.90;;;;;;5006080;28;20072;-35
2023/09/14 11:55:46;;;;;;;6.30;1.38;;;20.60;99.90;;;;;;5005680;28;20081;-35
2023/09/14 11:58:15;;;;;;;3.30;0.90;;;20.70;99.90;;;;;;5007518;28;20045;-34
2023/09/14 12:00:44;;;;;;;4.05;0.65;;;20.90;99.90;;;;;;5006942;28;20058;-35
2023/09/14 12:03:09;;;;;;;3.28;0.80;;;20.90;99.90;;;;;;4989505;28;20488;-34
2023/09/14 12:05:36;;;;;;;3.38;1.00;;;20.80;99.90;;;;;;5007714;28;20046;-34
2023/09/14 12:08:12;;;;;;;5.03;1.00;;;20.50;99.90;;;;;;5006722;28;20128;-34
2023/09/14 12:10:39;;;;;;;5.07;0.80;;;20.20;99.90;;;;;;5007810;28;20065;-34
2023/09/14 12:13:23;;;;;;;4.45;0.70;;;20.20;99.90;;;;;;5010810;28;20052;-34
2023/09/14 12:15:58;;;;;;;3.63;1.00;;;20.50;99.90;;;;;;5013786;28;20107;-35
2023/09/14 12:18:38;;;;;;;5.18;1.80;;;20.90;99.90;;;;;;5012459;28;20062;-34
2023/09/14 12:21:04;;;;;;;5.55;1.10;;;21.10;99.90;;;;;;5002379;28;20058;-35
2023/09/14 12:23:32;;;;;;;3.65;1.05;;;21.30;99.90;;;;;;5005877;28;20054;-35
2023/09/14 12:25:58;;;;;;;2.70;0.82;;;21.40;99.90;;;;;;5012470;28;20550;-34
2023/09/14 12:28:23;;;;;;;3.53;1.08;;;21.50;99.90;;;;;;5016645;28;20207;-34
2023/09/14 12:30:49;;;;;;;2.30;1.00;;;21.60;99.90;;;;;;5005694;28;20438;-34
2023/09/14 12:33:15;;;;;;;3.47;1.10;;;21.90;99.90;;;;;;5008605;28;20407;-34
2023/09/14 12:35:42;;;;;;;3.65;1.08;;;21.90;99.90;;;;;;5005489;28;20046;-35
2023/09/14 12:38:08;;;;;;;6.97;1.30;;;22.00;99.90;;;;;;5004100;28;20081;-35
2023/09/14 12:40:35;;;;;;;3.85;0.82;;;22.10;99.90;;;;;;5007567;28;20054;-34
2023/09/14 12:43:05;;;;;;;4.03;0.70;;;22.20;99.90;;;;;;5007469;28;20081;-35
2023/09/14 12:45:34;;;;;;;4.60;1.00;;;22.30;99.90;;;;;;5005503;28;20057;-34
2023/09/14 12:48:04;;;;;;;1.80;0.82;;;22.60;99.90;;;;;;4984811;28;20104;-35
2023/09/14 12:50:35;;;;;;;7.30;1.02;;;23.00;99.90;;;;;;5007087;28;20045;-35